createdAt,value
2019-04-22T00:01:05.798Z,3.63
2019-04-22T00:03:38.729Z,2.90
2019-04-22T00:06:29.317Z,3.10
2019-04-22T00:08:55.927Z,3.27
2019-04-22T00:11:29.337Z,3.37
2019-04-22T00:13:53.853Z,2.93
2019-04-22T00:16:26.400Z,3.00
2019-04-22T00:19:11.566Z,3.33
2019-04-22T00:21:21.467Z,3.03
2019-04-22T00:23:49.582Z,3.40
2019-04-22T00:26:16.399Z,2.77
2019-04-22T00:28:51.936Z,3.40
2019-04-22T00:31:28.645Z,3.10
2019-04-22T00:33:52.968Z,3.43
2019-04-22T00:36:23.667Z,3.33
2019-04-22T00:38:54.287Z,2.87
2019-04-22T00:41:25.425Z,3.23
2019-04-22T00:43:53.010Z,3.40
2019-04-22T00:46:23.856Z,3.30
2019-04-22T00:48:57.508Z,3.30
2019-04-22T00:53:42.867Z,3.17
2019-04-22T00:56:20.260Z,2.90
2019-04-22T00:58:40.629Z,3.00
2019-04-22T01:01:14.315Z,3.23
2019-04-22T01:03:44.827Z,3.20
2019-04-22T01:06:14.818Z,3.30
2019-04-22T01:08:40.308Z,3.47
2019-04-22T01:11:14.963Z,3.03
2019-04-22T01:13:30.534Z,3.50
2019-04-22T01:16:04.474Z,3.90
2019-04-22T01:18:34.594Z,3.43
2019-04-22T01:23:28.154Z,3.70
2019-04-22T01:25:55.101Z,3.73
2019-04-22T01:28:20.159Z,3.97
2019-04-22T01:30:44.095Z,3.70
2019-04-22T01:33:11.992Z,3.93
2019-04-22T01:35:49.318Z,3.53
2019-04-22T01:38:22.528Z,3.67
2019-04-22T01:41:04.574Z,3.83
2019-04-22T01:43:33.622Z,3.57
2019-04-22T01:46:04.528Z,3.53
2019-04-22T01:48:30.810Z,3.63
2019-04-22T01:50:49.901Z,4.10
2019-04-22T01:53:24.441Z,4.10
2019-04-22T01:55:53.357Z,4.83
2019-04-22T01:58:10.998Z,4.10
2019-04-22T02:00:53.762Z,4.10
2019-04-22T02:03:19.041Z,4.43
2019-04-22T02:05:43.910Z,4.07
2019-04-22T02:08:25.575Z,3.63
2019-04-22T02:10:50.852Z,4.30
2019-04-22T02:13:15.634Z,4.37
2019-04-22T02:15:48.727Z,3.93
2019-04-22T02:18:17.899Z,4.30
2019-04-22T02:20:40.598Z,3.90
2019-04-22T02:26:01.145Z,4.53
2019-04-22T02:28:38.312Z,4.97
2019-04-22T02:41:16.028Z,4.90
2019-04-22T02:46:19.144Z,4.23
2019-04-22T02:48:48.229Z,4.20
2019-04-22T02:53:59.293Z,4.30
2019-04-22T02:56:08.208Z,4.10
2019-04-22T02:58:27.283Z,4.00
2019-04-22T03:01:01.219Z,4.03
2019-04-22T03:05:56.819Z,3.40
2019-04-22T03:10:56.579Z,3.80
2019-04-22T03:13:29.346Z,4.03
2019-04-22T03:15:54.956Z,4.07
2019-04-22T03:18:27.322Z,4.10
2019-04-22T03:20:42.856Z,4.07
2019-04-22T03:23:25.406Z,4.33
2019-04-22T03:28:04.663Z,3.53
2019-04-22T03:33:23.471Z,4.20
2019-04-22T03:38:19.374Z,4.10
2019-04-22T03:40:37.328Z,3.57
2019-04-22T03:43:04.979Z,4.50
2019-04-22T03:48:02.810Z,3.80
2019-04-22T03:55:41.815Z,3.97
2019-04-22T03:57:57.024Z,4.40
2019-04-22T04:03:01.074Z,4.50
2019-04-22T04:05:41.756Z,4.53
2019-04-22T04:10:35.372Z,4.57
2019-04-22T04:15:23.653Z,4.63
2019-04-22T04:17:54.983Z,4.83
2019-04-22T04:21:01.323Z,4.37
2019-04-22T04:35:27.869Z,5.00
2019-04-22T04:42:54.324Z,4.90
2019-04-22T04:45:33.745Z,5.10
2019-04-22T04:50:15.872Z,4.20
2019-04-22T05:02:48.932Z,4.77
2019-04-22T05:05:12.973Z,4.73
2019-04-22T05:07:48.535Z,4.57
2019-04-22T05:15:11.992Z,5.07
2019-04-22T05:17:43.916Z,5.07
2019-04-22T05:20:05.270Z,4.47
2019-04-22T05:22:33.605Z,4.70
2019-04-22T05:25:05.941Z,4.50
2019-04-22T05:32:24.449Z,5.03
2019-04-22T05:34:53.004Z,4.77
2019-04-22T05:37:27.516Z,4.73
2019-04-22T05:39:51.364Z,4.87
2019-04-22T05:42:21.717Z,5.33
2019-04-22T05:44:49.743Z,4.83
2019-04-22T05:47:19.435Z,5.23
2019-04-22T05:49:41.515Z,5.63
2019-04-22T05:52:19.284Z,5.50
2019-04-22T05:54:50.488Z,5.57
2019-04-22T05:57:14.598Z,4.93
2019-04-22T05:59:46.268Z,4.60
2019-04-22T06:02:13.632Z,5.57
2019-04-22T06:04:37.128Z,5.53
2019-04-22T06:07:06.626Z,5.70
2019-04-22T06:09:32.624Z,5.07
2019-04-22T06:12:05.000Z,6.07
2019-04-22T06:14:40.771Z,5.10
2019-04-22T06:17:11.249Z,5.03
2019-04-22T06:19:42.437Z,5.13
2019-04-22T06:22:09.090Z,5.30
2019-04-22T06:24:38.862Z,5.67
2019-04-22T06:27:08.011Z,6.33
2019-04-22T06:29:41.402Z,6.20
2019-04-22T06:34:28.882Z,5.70
2019-04-22T06:37:11.916Z,6.03
2019-04-22T06:39:30.783Z,6.50
2019-04-22T06:42:06.866Z,5.77
2019-04-22T06:44:26.077Z,6.13
2019-04-22T06:46:52.618Z,6.00
2019-04-22T06:49:26.732Z,6.50
2019-04-22T06:51:53.737Z,5.57
2019-04-22T06:54:23.408Z,6.50
2019-04-22T06:56:53.289Z,5.57
2019-04-22T06:59:15.963Z,6.03
2019-04-22T07:01:46.873Z,5.77
2019-04-22T07:04:09.251Z,6.67
2019-04-22T07:09:30.151Z,7.00
2019-04-22T07:11:36.662Z,6.63
2019-04-22T07:14:04.256Z,6.80
2019-04-22T07:16:38.102Z,5.83
2019-04-22T07:21:30.842Z,6.37
2019-04-22T07:24:24.242Z,7.30
2019-04-22T07:26:29.029Z,6.83
2019-04-22T07:29:01.472Z,6.63
2019-04-22T07:31:50.879Z,7.23
2019-04-22T07:34:08.089Z,6.80
2019-04-22T07:39:04.257Z,7.07
2019-04-22T07:41:31.760Z,6.77
2019-04-22T07:46:33.553Z,6.90
2019-04-22T07:49:00.015Z,6.73
2019-04-22T07:51:28.248Z,7.07
2019-04-22T07:53:56.291Z,6.63
2019-04-22T07:56:24.718Z,6.90
2019-04-22T07:58:55.652Z,7.03
2019-04-22T08:01:39.876Z,7.07
2019-04-22T08:03:59.853Z,6.67
2019-04-22T08:08:58.284Z,6.30
2019-04-22T08:11:32.663Z,6.43
2019-04-22T08:13:58.713Z,6.90
2019-04-22T08:16:16.532Z,6.47
2019-04-22T08:18:46.036Z,5.90
2019-04-22T08:21:13.702Z,5.97
2019-04-22T08:23:52.542Z,6.33
2019-04-22T08:26:13.450Z,6.47
2019-04-22T08:28:46.018Z,6.23
2019-04-22T08:31:18.565Z,6.50
2019-04-22T08:33:46.588Z,6.23
2019-04-22T08:38:53.920Z,7.30
2019-04-22T08:41:27.232Z,6.80
2019-04-22T08:43:56.213Z,6.60
2019-04-22T08:46:25.327Z,5.30
2019-04-22T08:48:57.761Z,5.63
2019-04-22T08:51:28.215Z,6.00
2019-04-22T08:56:29.352Z,5.30
2019-04-22T08:59:00.035Z,5.23
2019-04-22T09:03:52.661Z,6.60
2019-04-22T09:09:01.950Z,5.60
2019-04-22T09:11:35.618Z,5.60
2019-04-22T09:16:33.172Z,5.83
2019-04-22T09:19:03.204Z,5.63
2019-04-22T09:21:32.822Z,5.60
2019-04-22T09:24:06.842Z,5.70
2019-04-22T09:26:34.733Z,5.67
2019-04-22T09:28:59.939Z,5.17
2019-04-22T09:31:24.019Z,5.53
2019-04-22T09:33:59.609Z,6.43
2019-04-22T09:36:35.204Z,5.07
2019-04-22T09:39:00.650Z,5.30
2019-04-22T09:41:33.334Z,5.13
2019-04-22T09:43:56.637Z,4.93
2019-04-22T09:46:33.105Z,5.10
2019-04-22T09:49:05.233Z,4.80
2019-04-22T09:51:26.887Z,4.10
2019-04-22T09:54:04.081Z,4.53
2019-04-22T09:56:27.935Z,4.53
2019-04-22T10:06:29.297Z,3.40
2019-04-22T10:09:02.105Z,4.47
2019-04-22T10:11:23.613Z,3.60
2019-04-22T10:16:17.561Z,3.20
2019-04-22T10:18:49.106Z,3.43
2019-04-22T10:21:17.178Z,3.47
2019-04-22T10:24:00.291Z,3.20
2019-04-22T10:26:39.398Z,3.20
2019-04-22T10:29:10.736Z,3.83
2019-04-22T10:34:03.871Z,3.10
2019-04-22T10:36:19.505Z,3.57
2019-04-22T10:38:46.678Z,3.50
2019-04-22T10:41:14.393Z,3.67
2019-04-22T10:43:41.619Z,4.27
2019-04-22T10:46:10.324Z,3.97
2019-04-22T10:48:37.483Z,3.87
2019-04-22T10:51:04.681Z,3.87
2019-04-22T10:53:33.563Z,3.97
2019-04-22T10:56:03.037Z,4.33
2019-04-22T10:58:32.749Z,4.57
2019-04-22T11:01:00.379Z,3.47
2019-04-22T11:03:28.258Z,3.90
2019-04-22T11:05:56.958Z,3.90
2019-04-22T11:08:38.595Z,3.33
2019-04-22T11:11:16.698Z,3.90
2019-04-22T11:13:29.103Z,3.40
2019-04-22T11:15:56.313Z,3.70
2019-04-22T11:18:23.317Z,3.47
2019-04-22T11:20:51.479Z,3.23
2019-04-22T11:23:18.744Z,3.20
2019-04-22T11:25:46.173Z,3.17
2019-04-22T11:28:13.704Z,3.40
2019-04-22T11:30:42.676Z,3.43
2019-04-22T11:33:09.740Z,3.17
2019-04-22T11:35:37.517Z,3.30
2019-04-22T11:38:04.694Z,2.90
2019-04-22T11:40:37.860Z,3.27
2019-04-22T11:43:01.787Z,3.00
2019-04-22T11:45:29.221Z,3.53
2019-04-22T11:47:57.250Z,3.47
2019-04-22T11:50:27.968Z,2.93
2019-04-22T11:52:55.361Z,2.80
2019-04-22T11:55:24.481Z,2.60
2019-04-22T11:57:52.146Z,3.10
2019-04-22T12:00:25.192Z,2.67
2019-04-22T12:02:52.314Z,3.43
2019-04-22T12:05:19.686Z,2.93
2019-04-22T12:07:48.874Z,3.30
2019-04-22T12:10:29.913Z,3.73
2019-04-22T12:12:49.610Z,3.30
2019-04-22T12:15:17.077Z,3.43
2019-04-22T12:17:44.520Z,3.77
2019-04-22T12:20:14.555Z,3.40
2019-04-22T12:22:42.947Z,3.53
2019-04-22T12:25:12.465Z,3.57
2019-04-22T12:27:41.048Z,3.67
2019-04-22T12:30:09.197Z,4.63
2019-04-22T12:32:36.048Z,3.80
2019-04-22T12:35:03.416Z,3.80
2019-04-22T12:37:36.039Z,3.87
2019-04-22T12:40:00.389Z,4.10
2019-04-22T12:42:27.310Z,3.90
2019-04-22T12:44:54.347Z,3.10
2019-04-22T12:47:22.340Z,3.50
2019-04-22T12:49:55.327Z,4.03
2019-04-22T12:52:30.554Z,4.17
2019-04-22T12:54:47.131Z,2.83
2019-04-22T12:57:14.740Z,3.30
2019-04-22T12:59:43.791Z,3.60
2019-04-22T13:02:11.232Z,2.80
2019-04-22T13:04:38.515Z,2.90
2019-04-22T13:07:06.109Z,3.73
2019-04-22T13:09:33.554Z,3.67
2019-04-22T13:12:01.227Z,3.60
2019-04-22T13:14:28.534Z,3.10
2019-04-22T13:16:55.705Z,3.00
2019-04-22T13:19:23.487Z,4.97
2019-04-22T13:21:51.342Z,2.50
2019-04-22T13:24:20.099Z,2.53
2019-04-22T13:26:48.521Z,2.17
2019-04-22T13:29:16.869Z,2.17
2019-04-22T13:31:46.589Z,2.10
2019-04-22T13:34:21.404Z,2.63
2019-04-22T13:36:46.738Z,2.50
2019-04-22T13:39:13.690Z,2.67
2019-04-22T13:41:48.790Z,2.93
2019-04-22T13:44:09.956Z,2.60
2019-04-22T13:46:38.397Z,2.77
2019-04-22T13:49:31.083Z,2.43
2019-04-22T13:56:51.822Z,2.27
2019-04-22T13:59:13.647Z,3.43
2019-04-22T14:01:43.048Z,2.63
2019-04-22T14:04:16.358Z,2.17
2019-04-22T14:06:44.546Z,2.50
2019-04-22T14:09:13.561Z,1.93
2019-04-22T14:11:49.713Z,2.10
2019-04-22T14:14:12.680Z,1.80
2019-04-22T14:16:40.806Z,2.67
2019-04-22T14:19:07.974Z,2.00
2019-04-22T14:21:34.855Z,2.27
2019-04-22T14:24:02.699Z,2.07
2019-04-22T14:26:44.157Z,2.20
2019-04-22T14:29:04.212Z,1.67
2019-04-22T14:31:34.424Z,2.00
2019-04-22T14:34:05.312Z,2.00
2019-04-22T14:36:33.078Z,1.30
2019-04-22T14:39:00.095Z,1.70
2019-04-22T14:41:43.557Z,1.90
2019-04-22T14:44:56.457Z,1.23
2019-04-22T14:46:58.724Z,1.40
2019-04-22T14:49:24.302Z,1.40
2019-04-22T14:51:46.438Z,1.40
2019-04-22T14:54:09.715Z,1.60
2019-04-22T14:56:22.449Z,1.43
2019-04-22T14:58:50.862Z,1.50
2019-04-22T15:01:19.071Z,1.50
2019-04-22T15:03:48.339Z,1.30
2019-04-22T15:06:15.909Z,1.20
2019-04-22T15:08:44.975Z,1.20
2019-04-22T15:11:13.163Z,1.57
2019-04-22T15:13:41.187Z,1.50
2019-04-22T15:16:28.245Z,1.40
2019-04-22T15:19:03.748Z,1.20
2019-04-22T15:21:32.360Z,1.23
2019-04-22T15:24:22.795Z,1.30
2019-04-22T15:26:56.542Z,1.73
2019-04-22T15:29:25.351Z,1.10
2019-04-22T15:31:55.690Z,1.80
2019-04-22T15:34:22.940Z,1.67
2019-04-22T15:36:50.634Z,1.33
2019-04-22T15:39:18.639Z,1.43
2019-04-22T15:41:56.064Z,1.73
2019-04-22T15:44:15.208Z,1.23
2019-04-22T15:46:42.644Z,1.10
2019-04-22T15:49:16.078Z,0.73
2019-04-22T15:52:02.158Z,1.20
2019-04-22T15:54:27.925Z,1.17
2019-04-22T15:56:54.906Z,1.53
2019-04-22T15:59:38.875Z,1.37
2019-04-22T16:01:52.431Z,1.10
2019-04-22T16:04:20.962Z,1.47
2019-04-22T16:06:49.463Z,1.40
2019-04-22T16:09:17.342Z,1.50
2019-04-22T16:11:45.653Z,2.00
2019-04-22T16:14:15.142Z,1.43
2019-04-22T16:16:42.938Z,1.30
2019-04-22T16:19:09.841Z,1.53
2019-04-22T16:21:49.038Z,1.27
2019-04-22T16:24:32.116Z,1.67
2019-04-22T16:27:18.700Z,1.67
2019-04-22T16:29:45.539Z,2.20
2019-04-22T16:32:13.648Z,1.50
2019-04-22T16:34:40.672Z,1.50
2019-04-22T16:37:07.490Z,1.47
2019-04-22T16:39:34.266Z,1.30
2019-04-22T16:42:02.466Z,1.50
2019-04-22T16:44:30.530Z,1.30
2019-04-22T16:46:57.467Z,1.33
2019-04-22T16:49:25.453Z,1.47
2019-04-22T16:51:56.057Z,4.77
2019-04-22T16:54:24.383Z,1.20
2019-04-22T16:56:52.283Z,1.60
2019-04-22T16:59:19.118Z,1.20
2019-04-22T17:02:06.409Z,1.60
2019-04-22T17:04:57.750Z,1.37
2019-04-22T17:07:24.642Z,1.33
2019-04-22T17:09:57.666Z,1.53
2019-04-22T17:12:37.783Z,1.23
2019-04-22T17:15:00.032Z,1.10
2019-04-22T17:17:22.346Z,1.53
2019-04-22T17:19:49.339Z,1.27
2019-04-22T17:22:17.497Z,1.40
2019-04-22T17:24:45.782Z,1.37
2019-04-22T17:27:12.860Z,1.50
2019-04-22T17:29:41.054Z,1.53
2019-04-22T17:32:13.126Z,1.63
2019-04-22T17:34:39.187Z,1.17
2019-04-22T17:37:12.713Z,1.20
2019-04-22T17:39:45.366Z,1.30
2019-04-22T17:42:35.583Z,1.73
2019-04-22T17:45:15.784Z,1.40
2019-04-22T17:48:04.302Z,1.57
2019-04-22T17:50:37.921Z,1.47
2019-04-22T17:53:08.641Z,1.20
2019-04-22T17:55:38.449Z,1.47
2019-04-22T17:58:04.236Z,1.87
2019-04-22T18:00:25.438Z,1.37
2019-04-22T18:02:52.040Z,1.20
2019-04-22T18:05:13.024Z,1.60
2019-04-22T18:08:02.631Z,1.50
2019-04-22T18:10:33.081Z,1.60
2019-04-22T18:13:06.987Z,1.60
2019-04-22T18:15:23.982Z,1.40
2019-04-22T18:18:01.026Z,1.73
2019-04-22T18:20:22.600Z,1.20
2019-04-22T18:22:46.245Z,1.40
2019-04-22T18:25:16.369Z,1.00
2019-04-22T18:28:00.677Z,1.63
2019-04-22T18:30:18.024Z,1.47
2019-04-22T18:32:53.302Z,1.37
2019-04-22T18:35:15.528Z,1.27
2019-04-22T18:37:50.052Z,1.83
2019-04-22T18:40:14.969Z,1.23
2019-04-22T18:42:53.599Z,1.83
2019-04-22T18:45:29.687Z,1.17
2019-04-22T18:47:41.436Z,1.53
2019-04-22T18:50:08.805Z,2.00
2019-04-22T18:53:07.076Z,1.83
2019-04-22T18:55:44.257Z,1.73
2019-04-22T18:58:16.605Z,1.67
2019-04-22T19:00:31.750Z,1.80
2019-04-22T19:03:03.877Z,1.70
2019-04-22T19:05:45.463Z,2.10
2019-04-22T19:08:23.244Z,2.53
2019-04-22T19:15:54.207Z,2.03
2019-04-22T19:18:24.233Z,1.90
2019-04-22T19:20:51.343Z,1.83
2019-04-22T19:23:17.702Z,2.80
2019-04-22T19:25:42.322Z,2.03
2019-04-22T19:28:27.410Z,2.20
2019-04-22T19:30:48.201Z,2.00
2019-04-22T19:33:19.191Z,2.17
2019-04-22T19:35:42.829Z,2.53
2019-04-22T19:38:11.665Z,2.30
2019-04-22T19:40:55.406Z,2.23
2019-04-22T19:43:18.710Z,2.50
2019-04-22T19:45:44.449Z,2.47
2019-04-22T19:48:25.091Z,2.03
2019-04-22T19:50:50.444Z,2.67
2019-04-22T19:53:10.124Z,2.17
2019-04-22T19:55:43.736Z,2.53
2019-04-22T19:58:07.251Z,2.73
2019-04-22T20:00:53.571Z,2.80
2019-04-22T20:03:52.314Z,3.50
2019-04-22T20:06:21.995Z,2.03
2019-04-22T20:08:57.316Z,2.33
2019-04-22T20:11:23.249Z,2.00
2019-04-22T20:14:01.293Z,1.97
2019-04-22T20:16:20.725Z,1.97
2019-04-22T20:18:52.384Z,1.60
2019-04-22T20:21:22.292Z,2.30
2019-04-22T20:23:39.088Z,1.93
2019-04-22T20:26:07.305Z,2.20
2019-04-22T20:28:49.206Z,2.30
2019-04-22T20:31:14.102Z,1.77
2019-04-22T20:33:44.517Z,2.30
2019-04-22T20:36:26.905Z,2.33
2019-04-22T20:38:42.498Z,2.50
2019-04-22T20:41:05.534Z,2.37
2019-04-22T20:43:43.285Z,2.10
2019-04-22T20:46:06.276Z,2.53
2019-04-22T20:48:40.880Z,2.10
2019-04-22T20:51:04.168Z,2.03
2019-04-22T20:53:36.468Z,2.37
2019-04-22T20:56:00.722Z,2.23
2019-04-22T20:58:28.543Z,2.30
2019-04-22T21:00:50.571Z,2.10
2019-04-22T21:03:17.468Z,2.20
2019-04-22T21:05:47.191Z,2.13
2019-04-22T21:08:24.464Z,2.40
2019-04-22T21:10:45.596Z,2.13
2019-04-22T21:13:13.992Z,2.50
2019-04-22T21:15:49.446Z,2.00
2019-04-22T21:18:15.410Z,2.20
2019-04-22T21:20:54.438Z,2.00
2019-04-22T21:23:13.952Z,2.70
2019-04-22T21:25:35.852Z,2.13
2019-04-22T21:28:14.469Z,2.30
2019-04-22T21:30:37.269Z,2.67
2019-04-22T21:33:08.294Z,2.33
2019-04-22T21:35:53.986Z,2.50
2019-04-22T21:38:09.774Z,2.20
2019-04-22T21:40:34.426Z,2.40
2019-04-22T21:43:13.367Z,2.80
2019-04-22T21:45:28.129Z,2.27
2019-04-22T21:48:18.104Z,2.97
2019-04-22T21:50:41.480Z,2.70
2019-04-22T21:53:07.299Z,2.30
2019-04-22T21:55:37.486Z,2.30
2019-04-22T21:58:16.061Z,2.43
2019-04-22T22:00:53.509Z,2.50
2019-04-22T22:03:13.046Z,3.00
2019-04-22T22:05:34.202Z,2.40
2019-04-22T22:08:05.605Z,2.93
2019-04-22T22:10:39.867Z,2.83
2019-04-22T22:13:08.708Z,3.47
2019-04-22T22:15:35.050Z,2.90
2019-04-22T22:18:02.264Z,2.90
2019-04-22T22:20:36.010Z,2.63
2019-04-22T22:23:11.997Z,3.10
2019-04-22T22:25:32.034Z,2.77
2019-04-22T22:27:58.674Z,2.67
2019-04-22T22:30:41.558Z,2.90
2019-04-22T22:33:01.273Z,2.57
2019-04-22T22:35:26.671Z,2.70
2019-04-22T22:37:50.415Z,3.50
2019-04-22T22:40:10.696Z,2.73
2019-04-22T22:42:38.667Z,3.20
2019-04-22T22:45:10.648Z,2.67
2019-04-22T22:47:44.576Z,2.60
2019-04-22T22:50:15.970Z,2.70
2019-04-22T22:55:20.243Z,3.10
2019-04-22T22:57:44.302Z,2.67
2019-04-22T23:00:11.847Z,3.17
2019-04-22T23:02:47.242Z,3.20
2019-04-22T23:05:09.674Z,3.50
2019-04-22T23:07:40.894Z,3.43
2019-04-22T23:10:09.317Z,3.40
2019-04-22T23:12:55.810Z,3.03
2019-04-22T23:15:04.690Z,3.13
2019-04-22T23:17:18.787Z,3.60
2019-04-22T23:19:48.695Z,3.43
2019-04-22T23:22:20.350Z,3.30
2019-04-22T23:25:01.741Z,3.60
2019-04-22T23:27:34.174Z,3.33
2019-04-22T23:30:02.390Z,3.40
2019-04-22T23:32:31.804Z,3.97
2019-04-22T23:35:10.054Z,4.10
2019-04-22T23:37:39.367Z,3.23
2019-04-22T23:40:16.075Z,3.87
2019-04-22T23:42:33.804Z,3.87
2019-04-22T23:45:09.512Z,3.80
2019-04-22T23:47:31.001Z,3.83
2019-04-22T23:50:17.987Z,4.53
2019-04-22T23:52:43.324Z,3.93
2019-04-22T23:55:09.898Z,3.90
2019-04-22T23:57:42.132Z,3.90
